Astoria, OR (97103)

7:14 PM PST on February 13, 2016 (GMT -0800)
Knappa, Oregon | | Change Station
CLOSE
Current Station
Personal Weather Station
Location: Astoria, OR
Elevation: 105 ft
Nearby Weather Stations

Elev 105 ft 46.17 °N, 123.58 °W | Updated 14 minutes ago

Rain
Rain
47.0 °F
Feels Like 47 °F
N
0.0
Wind Variable Wind from NNE
Gusts 3.0 mph

Today
High -- | Low -- °F
--% Chance of Precip.
Yesterday
High -- | Low -- °F
Precip. -- in
Pressure 30.09 in
Visibility 2.0 miles
Clouds Few 1200 ft
Overcast 1800 ft
Windchill 47 °F
Dew Point 43 °F
Humidity 85%
Rainfall 0.72 in
Snow Depth Not available.
7:21 AM 5:37 PM
Waxing Crescent, 37% visible
SPECI KAST 140311Z AUTO 20015G26KT 2SM -RA BR FEW012 OVC018 11/09 A3009 RMK AO2 PK WND 18033/0256 P0005 T01060094
Pressure 30.09 in
Visibility 2.0 miles
Clouds Few 1200 ft
Overcast 1800 ft
Windchill 47 °F
Dew Point 43 °F
Humidity 85%
Rainfall 0.72 in
Snow Depth Not available.
7:21 AM 5:37 PM
Waxing Crescent, 37% visible
SPECI KAST 140311Z AUTO 20015G26KT 2SM -RA BR FEW012 OVC018 11/09 A3009 RMK AO2 PK WND 18033/0256 P0005 T01060094

10-Day Weather Forecast

Almanac

Astronomy

Feb. 13, 2016 Rise Set
Actual Time
Civil Twilight
Nautical Twilight
Astronomical Twilight
Moon
Length of Visible Light
Length of Day
Tomorrow will be .
, % of the Moon is Illuminated

Today's Extremes

State Highs State Lows

Community

WunderPhotos

Upload Photos

1,892,733 photos uploaded!

WunderBlog® & News

Nearby

Air Quality

  Air Quality AQ Index Pollutant
Not available.

Snow Depth

Station Depth Elevation

Earthquake Activity

City Distance Mag. Time & Date
Minimum magnitude displayed is 2.5.

Coastal Water Temperatures

Place Temperature

Stations

Nearby Weather Stations

Station Location Temp. Windchill Dew Point Humidity Wind Precip. Elev Updated Type
                   

Watches & Warnings

There are currently no watches in effect.